Portada
METAR-TAF:

METAR-TAF

Aeropuertos :

Morrisville-Stowe State Airport

Morrisville, Vermont, Estados Unidos

latitud: 44-32-10N, longitud: 072-36-58W, altitud: 223 m

Observación

El informe se hizo hace 39 minutos, a las 07:54 UTC
Viento 5 kt del este-sureste
Temperatura 2°C
Humedad 93%
Presión 1006 hPa
Visibilidad: 16.1 km
Cielo cubierto a una altura de 4300 ft

METAR: KMVL 220754Z AUTO 12005KT 10SM OVC043 02/01 A2972 RMK AO2 RAB26E35 SLP072 P0000 T00170006

Hora: 03:33 (08:33 UTC)


TAF: falta

Observaciones y pronósticos meteorológicos de más de 4000 aeropuertos (mensajes METAR y TAF).

Los puntos amarillos y rojos representan las estaciones disponibles.

Ponga el ratón en el punto deseado para ver el nombre de la estación.

Haga clic para ver las observaciones y los pronósticos meteorológicos.

Para cambiar el mapa : haga clic en los botones verdes con una cruz de color negro para hacer un zoom, en el botón verde con un guión para alejar o en las flechas verdes para mapas adyacentes.


METAR-TAF: